createdAt,value
2022-12-09T00:00:37.440Z,2.85
2022-12-09T00:03:04.203Z,2.90
2022-12-09T00:05:31.866Z,2.71
2022-12-09T00:07:58.378Z,2.59
2022-12-09T00:10:24.902Z,2.59
2022-12-09T00:12:55.163Z,2.80
2022-12-09T00:15:22.224Z,2.85
2022-12-09T00:17:49.016Z,2.88
2022-12-09T00:20:15.581Z,2.78
2022-12-09T00:22:42.205Z,2.49
2022-12-09T00:25:08.895Z,2.87
2022-12-09T00:27:35.420Z,2.77
2022-12-09T00:30:01.868Z,3.02
2022-12-09T00:32:28.370Z,3.18
2022-12-09T00:34:55.018Z,2.94
2022-12-09T00:37:21.474Z,2.97
2022-12-09T00:39:47.931Z,3.05
2022-12-09T00:42:14.433Z,2.88
2022-12-09T00:44:40.933Z,3.10
2022-12-09T00:47:07.494Z,3.20
2022-12-09T00:49:34.279Z,3.17
2022-12-09T00:52:00.769Z,2.76
2022-12-09T00:54:27.256Z,2.72
2022-12-09T00:56:53.824Z,2.73
2022-12-09T00:59:20.516Z,3.02
2022-12-09T01:01:47.318Z,3.35
2022-12-09T01:04:14.139Z,3.47
2022-12-09T01:06:41.716Z,3.16
2022-12-09T01:09:08.204Z,2.99
2022-12-09T01:11:35.410Z,3.38
2022-12-09T01:14:03.644Z,3.57
2022-12-09T01:16:32.271Z,3.29
2022-12-09T01:19:01.565Z,3.15
2022-12-09T01:21:28.944Z,3.25
2022-12-09T01:23:55.613Z,2.98
2022-12-09T01:26:22.648Z,2.71
2022-12-09T01:28:53.440Z,2.75
2022-12-09T01:31:23.058Z,3.09
2022-12-09T01:33:50.490Z,3.28
2022-12-09T01:36:20.335Z,3.38
2022-12-09T01:38:47.914Z,2.98
2022-12-09T01:41:16.114Z,2.73
2022-12-09T01:43:43.379Z,2.09
2022-12-09T01:46:10.104Z,2.64
2022-12-09T01:48:39.147Z,2.81
2022-12-09T01:51:17.059Z,3.12
2022-12-09T01:53:45.432Z,2.75
2022-12-09T01:56:23.063Z,2.45
2022-12-09T01:58:50.363Z,2.50
2022-12-09T02:01:17.596Z,2.83
2022-12-09T02:03:44.800Z,2.25
2022-12-09T02:06:11.439Z,2.34
2022-12-09T02:08:38.017Z,2.46
2022-12-09T02:11:11.981Z,2.40
2022-12-09T02:13:52.062Z,2.94
2022-12-09T02:16:22.193Z,2.84
2022-12-09T02:18:59.449Z,2.69
2022-12-09T02:21:32.328Z,3.07
2022-12-09T02:24:08.964Z,2.99
2022-12-09T02:27:04.999Z,2.39
2022-12-09T02:29:34.575Z,2.75
2022-12-09T02:32:16.441Z,2.20
2022-12-09T02:34:53.639Z,2.61
2022-12-09T02:37:24.158Z,2.61
2022-12-09T02:39:57.878Z,1.96
2022-12-09T02:42:26.591Z,2.35
2022-12-09T02:44:53.335Z,2.08
2022-12-09T02:47:23.155Z,2.02
2022-12-09T02:49:56.062Z,1.98
2022-12-09T02:52:23.169Z,2.17
2022-12-09T02:54:50.695Z,2.53
2022-12-09T02:57:20.531Z,2.21
2022-12-09T02:59:46.969Z,2.24
2022-12-09T03:02:32.478Z,2.24
2022-12-09T03:05:13.054Z,2.65
2022-12-09T03:07:51.743Z,2.95
2022-12-09T03:10:36.122Z,2.71
2022-12-09T03:13:08.364Z,2.45
2022-12-09T03:15:36.146Z,2.05
2022-12-09T03:18:05.139Z,1.86
2022-12-09T03:20:32.839Z,1.86
2022-12-09T03:23:01.407Z,2.05
2022-12-09T03:25:33.915Z,1.67
2022-12-09T03:28:00.383Z,2.45
2022-12-09T03:30:26.909Z,2.33
2022-12-09T03:32:54.860Z,2.25
2022-12-09T03:35:24.821Z,2.23
2022-12-09T03:37:52.457Z,2.33
2022-12-09T03:40:24.373Z,2.54
2022-12-09T03:43:24.475Z,2.65
2022-12-09T03:45:54.811Z,2.13
2022-12-09T03:48:21.882Z,2.30
2022-12-09T03:50:54.724Z,2.40
2022-12-09T03:53:31.688Z,2.59
2022-12-09T03:56:03.270Z,2.46
2022-12-09T03:58:32.241Z,2.04
2022-12-09T04:00:59.130Z,2.95
2022-12-09T04:03:26.807Z,2.80
2022-12-09T04:05:53.643Z,2.81
2022-12-09T04:08:20.151Z,2.71
2022-12-09T04:10:46.978Z,2.94
2022-12-09T04:13:13.699Z,2.10
2022-12-09T04:15:40.148Z,2.30
2022-12-09T04:18:07.105Z,2.59
2022-12-09T04:20:33.947Z,2.40
2022-12-09T04:23:00.738Z,2.63
2022-12-09T04:25:27.529Z,2.69
2022-12-09T04:27:54.156Z,2.12
2022-12-09T04:30:20.773Z,1.99
2022-12-09T04:32:48.560Z,1.95
2022-12-09T04:35:15.175Z,2.33
2022-12-09T04:37:41.959Z,2.25
2022-12-09T04:40:09.373Z,2.20
2022-12-09T04:42:36.075Z,1.85
2022-12-09T04:45:03.060Z,2.24
2022-12-09T04:47:29.670Z,2.51
2022-12-09T04:49:56.406Z,2.11
2022-12-09T04:52:22.868Z,1.77
2022-12-09T04:54:51.026Z,1.73
2022-12-09T04:57:18.607Z,1.71
2022-12-09T04:59:45.831Z,1.93
2022-12-09T05:02:12.804Z,2.17
2022-12-09T05:04:40.284Z,1.55
2022-12-09T05:07:07.060Z,1.77
2022-12-09T05:09:34.407Z,2.63
2022-12-09T05:12:01.101Z,2.04
2022-12-09T05:14:28.049Z,2.38
2022-12-09T05:16:54.720Z,2.56
2022-12-09T05:19:21.832Z,2.18
2022-12-09T05:21:48.652Z,2.16
2022-12-09T05:24:15.501Z,2.00
2022-12-09T05:26:42.312Z,1.66
2022-12-09T05:29:09.248Z,1.73
2022-12-09T05:31:35.935Z,1.84
2022-12-09T05:34:03.173Z,1.50
2022-12-09T05:36:30.439Z,1.51
2022-12-09T05:38:57.258Z,1.53
2022-12-09T05:41:24.418Z,1.65
2022-12-09T05:43:51.876Z,1.54
2022-12-09T05:46:19.279Z,1.52
2022-12-09T05:48:46.171Z,1.23
2022-12-09T05:51:24.621Z,1.54
2022-12-09T05:53:51.691Z,1.77
2022-12-09T05:56:19.612Z,2.32
2022-12-09T05:58:46.910Z,2.36
2022-12-09T06:01:14.252Z,2.06
2022-12-09T06:03:41.251Z,1.33
2022-12-09T06:06:11.503Z,1.67
2022-12-09T06:08:38.623Z,1.70
2022-12-09T06:11:08.714Z,2.14
2022-12-09T06:13:35.385Z,2.20
2022-12-09T06:16:04.424Z,2.20
2022-12-09T06:18:31.567Z,2.34
2022-12-09T06:20:59.073Z,1.74
2022-12-09T06:23:26.377Z,2.31
2022-12-09T06:25:53.086Z,2.34
2022-12-09T06:28:20.269Z,2.48
2022-12-09T06:30:47.183Z,1.95
2022-12-09T06:33:37.342Z,2.04
2022-12-09T06:36:02.203Z,2.16
2022-12-09T06:38:28.914Z,2.49
2022-12-09T06:40:55.964Z,2.25
2022-12-09T06:43:22.994Z,2.41
2022-12-09T06:45:49.646Z,2.04
2022-12-09T06:48:16.571Z,2.14
2022-12-09T06:50:43.445Z,2.06
2022-12-09T06:53:10.171Z,2.25
2022-12-09T06:55:36.767Z,2.27
2022-12-09T06:58:03.637Z,2.33
2022-12-09T07:00:30.422Z,2.53
2022-12-09T07:02:57.546Z,2.31
2022-12-09T07:05:25.146Z,2.77
2022-12-09T07:07:52.449Z,3.04
2022-12-09T07:10:20.767Z,2.95
2022-12-09T07:12:47.644Z,3.04
2022-12-09T07:15:14.724Z,3.08
2022-12-09T07:17:42.143Z,2.61
2022-12-09T07:20:09.403Z,2.74
2022-12-09T07:22:36.375Z,2.68
2022-12-09T07:25:03.035Z,2.11
2022-12-09T07:27:30.364Z,2.07
2022-12-09T07:29:58.425Z,2.40
2022-12-09T07:32:25.202Z,2.88
2022-12-09T07:34:51.942Z,2.59
2022-12-09T07:37:18.826Z,2.14
2022-12-09T07:39:45.490Z,2.11
2022-12-09T07:42:12.047Z,2.10
2022-12-09T07:44:38.852Z,2.67
2022-12-09T07:47:05.489Z,2.57
2022-12-09T07:49:32.503Z,2.32
2022-12-09T07:51:59.474Z,2.41
2022-12-09T07:54:26.002Z,3.12
2022-12-09T07:56:52.507Z,2.74
2022-12-09T07:59:19.209Z,2.48
2022-12-09T08:01:46.062Z,2.64
2022-12-09T08:04:13.423Z,2.42
2022-12-09T08:06:40.414Z,2.39
2022-12-09T08:09:11.307Z,2.28
2022-12-09T08:11:38.509Z,2.12
2022-12-09T08:14:11.403Z,2.46
2022-12-09T08:16:40.275Z,2.30
2022-12-09T08:19:07.324Z,2.26
2022-12-09T08:21:34.584Z,2.45
2022-12-09T08:24:03.328Z,2.46
2022-12-09T08:26:31.673Z,1.90
2022-12-09T08:28:59.093Z,2.18
2022-12-09T08:31:27.405Z,2.13
2022-12-09T08:33:54.840Z,2.33
2022-12-09T08:36:24.037Z,2.45
2022-12-09T08:38:51.141Z,2.07
2022-12-09T08:41:35.839Z,2.54
2022-12-09T08:44:09.841Z,2.58
2022-12-09T08:46:38.948Z,2.91
2022-12-09T08:49:06.536Z,2.60
2022-12-09T08:51:34.222Z,2.42
2022-12-09T08:54:01.729Z,3.16
2022-12-09T08:56:29.219Z,3.11
2022-12-09T08:58:56.493Z,3.25
2022-12-09T09:01:27.023Z,3.25
2022-12-09T09:03:53.865Z,3.04
2022-12-09T09:06:21.026Z,3.00
2022-12-09T09:08:47.946Z,3.03
2022-12-09T09:11:18.056Z,2.80
2022-12-09T09:13:46.971Z,2.96
2022-12-09T09:16:16.758Z,2.94
2022-12-09T09:18:43.787Z,3.26
2022-12-09T09:21:12.451Z,3.11
2022-12-09T09:23:39.677Z,3.42
2022-12-09T09:26:11.252Z,3.15
2022-12-09T09:28:38.540Z,3.08
2022-12-09T09:31:06.636Z,3.20
2022-12-09T09:33:34.072Z,3.37
2022-12-09T09:36:08.299Z,3.33
2022-12-09T09:38:36.746Z,3.49
2022-12-09T09:41:08.855Z,3.27
2022-12-09T09:43:38.314Z,3.67
2022-12-09T09:46:05.291Z,3.23
2022-12-09T09:48:34.254Z,3.59
2022-12-09T09:51:21.171Z,3.55
2022-12-09T09:53:51.331Z,3.65
2022-12-09T09:56:45.969Z,3.04
2022-12-09T09:59:37.651Z,3.62
2022-12-09T10:02:17.205Z,3.82
2022-12-09T10:04:56.455Z,3.87
2022-12-09T10:07:33.790Z,3.61
2022-12-09T10:10:05.834Z,3.29
2022-12-09T10:12:39.295Z,3.62
2022-12-09T10:15:17.242Z,3.76
2022-12-09T10:17:55.282Z,4.37
2022-12-09T10:20:27.903Z,4.54
2022-12-09T10:23:05.061Z,3.98
2022-12-09T10:25:34.652Z,3.84
2022-12-09T10:28:23.009Z,3.76
2022-12-09T10:30:51.123Z,4.09
2022-12-09T10:33:19.784Z,3.93
2022-12-09T10:35:47.139Z,3.65
2022-12-09T10:38:17.472Z,3.94
2022-12-09T10:40:47.429Z,4.04
2022-12-09T10:43:37.547Z,3.57
2022-12-09T10:46:24.281Z,4.05
2022-12-09T10:48:54.081Z,3.87
2022-12-09T10:51:29.269Z,4.38
2022-12-09T10:54:02.721Z,3.87
2022-12-09T10:56:33.092Z,3.86
2022-12-09T10:59:15.945Z,4.29
2022-12-09T11:01:55.846Z,3.78
2022-12-09T11:04:31.019Z,3.48
2022-12-09T11:07:02.155Z,3.53
2022-12-09T11:09:34.544Z,3.65
2022-12-09T11:12:02.446Z,3.52
2022-12-09T11:14:41.444Z,3.65
2022-12-09T11:17:20.180Z,3.84
2022-12-09T11:19:51.444Z,3.41
2022-12-09T11:22:41.228Z,3.45
2022-12-09T11:25:23.806Z,3.76
2022-12-09T11:27:58.435Z,3.77
2022-12-09T11:30:34.855Z,3.89
2022-12-09T11:33:14.162Z,3.40
2022-12-09T11:35:43.896Z,4.53
2022-12-09T11:38:25.173Z,4.35
2022-12-09T11:41:13.001Z,3.92
2022-12-09T11:43:52.460Z,3.77
2022-12-09T11:46:25.656Z,3.53
2022-12-09T11:49:01.693Z,3.77
2022-12-09T11:51:30.839Z,4.04
2022-12-09T11:54:03.719Z,3.87
2022-12-09T11:56:31.106Z,4.04
2022-12-09T11:59:09.463Z,3.62
2022-12-09T12:01:55.005Z,3.65
2022-12-09T12:04:52.102Z,3.50
2022-12-09T12:07:44.052Z,3.86
2022-12-09T12:10:18.783Z,4.15
2022-12-09T12:12:56.132Z,4.12
2022-12-09T12:15:38.719Z,3.95
2022-12-09T12:18:10.758Z,4.19
2022-12-09T12:20:41.918Z,4.38
2022-12-09T12:23:29.895Z,4.47
2022-12-09T12:26:16.382Z,4.37
2022-12-09T12:29:08.691Z,3.82
2022-12-09T12:32:02.452Z,4.00
2022-12-09T12:35:23.541Z,3.91
2022-12-09T12:37:55.875Z,3.88
2022-12-09T12:40:36.326Z,4.46
2022-12-09T12:43:37.742Z,4.38
2022-12-09T12:46:18.178Z,4.36
2022-12-09T12:48:57.088Z,3.89
2022-12-09T12:51:54.080Z,4.04
2022-12-09T12:54:35.306Z,3.71
2022-12-09T12:57:26.650Z,4.35
2022-12-09T13:00:16.199Z,3.86
2022-12-09T13:02:50.702Z,4.15
2022-12-09T13:05:35.028Z,4.30
2022-12-09T13:08:23.402Z,4.24
2022-12-09T13:10:53.316Z,3.94
2022-12-09T13:13:28.207Z,3.52
2022-12-09T13:15:58.972Z,3.85
2022-12-09T13:18:29.691Z,3.51
2022-12-09T13:20:57.729Z,3.15
2022-12-09T13:23:55.839Z,3.43
2022-12-09T13:26:49.866Z,4.07
2022-12-09T13:29:25.958Z,3.50
2022-12-09T13:32:02.508Z,3.57
2022-12-09T13:34:28.896Z,3.23
2022-12-09T13:36:55.360Z,3.47
2022-12-09T13:39:40.158Z,4.13
2022-12-09T13:42:47.024Z,3.88
2022-12-09T13:45:16.891Z,3.56
2022-12-09T13:47:43.428Z,3.74
2022-12-09T13:50:48.270Z,3.86
2022-12-09T13:53:20.850Z,3.96
2022-12-09T13:55:57.458Z,3.47
2022-12-09T13:59:01.897Z,4.37
2022-12-09T14:01:42.577Z,4.63
2022-12-09T14:04:27.755Z,4.62
2022-12-09T14:07:10.050Z,4.78
2022-12-09T14:09:41.387Z,4.35
2022-12-09T14:12:11.730Z,4.75
2022-12-09T14:14:47.829Z,4.63
2022-12-09T14:17:40.523Z,4.86
2022-12-09T14:20:23.330Z,4.54
2022-12-09T14:23:13.103Z,4.76
2022-12-09T14:25:56.418Z,4.70
2022-12-09T14:28:40.718Z,4.66
2022-12-09T14:31:09.240Z,4.75
2022-12-09T14:33:54.070Z,4.48
2022-12-09T14:36:27.224Z,4.27
2022-12-09T14:39:23.702Z,4.47
2022-12-09T14:41:49.895Z,4.09
2022-12-09T14:44:25.446Z,4.34
2022-12-09T14:46:54.387Z,4.19
2022-12-09T14:49:23.852Z,4.42
2022-12-09T14:52:03.404Z,4.19
2022-12-09T14:54:37.877Z,3.78
2022-12-09T14:57:07.274Z,4.13
2022-12-09T14:59:34.264Z,4.38
2022-12-09T15:02:04.249Z,3.97
2022-12-09T15:04:32.586Z,4.04
2022-12-09T15:07:14.273Z,4.08
2022-12-09T15:10:02.388Z,4.07
2022-12-09T15:12:35.540Z,4.03
2022-12-09T15:15:07.219Z,4.07
2022-12-09T15:17:43.247Z,4.10
2022-12-09T15:20:33.952Z,4.30
2022-12-09T15:23:07.012Z,4.14
2022-12-09T15:25:42.599Z,3.84
2022-12-09T15:28:21.448Z,3.72
2022-12-09T15:31:01.569Z,3.84
2022-12-09T15:33:42.717Z,4.00
2022-12-09T15:36:12.899Z,3.94
2022-12-09T15:38:53.375Z,3.77
2022-12-09T15:41:38.888Z,3.76
2022-12-09T15:44:09.411Z,3.89
2022-12-09T15:46:37.067Z,3.89
2022-12-09T15:49:04.301Z,3.71
2022-12-09T15:51:32.987Z,3.63
2022-12-09T15:54:01.831Z,3.64
2022-12-09T15:56:52.384Z,3.54
2022-12-09T15:59:22.327Z,3.57
2022-12-09T16:01:51.545Z,3.44
2022-12-09T16:04:41.502Z,3.48
2022-12-09T16:07:09.675Z,3.40
2022-12-09T16:09:36.623Z,3.59
2022-12-09T16:12:03.115Z,3.44
2022-12-09T16:14:43.120Z,3.53
2022-12-09T16:17:24.497Z,3.32
2022-12-09T16:19:51.188Z,3.29
2022-12-09T16:22:23.908Z,3.23
2022-12-09T16:25:14.605Z,3.19
2022-12-09T16:27:45.667Z,2.96
2022-12-09T16:30:20.770Z,2.96
2022-12-09T16:32:55.511Z,3.08
2022-12-09T16:35:35.575Z,3.01
2022-12-09T16:38:11.154Z,3.03
2022-12-09T16:40:43.574Z,3.07
2022-12-09T16:43:16.342Z,3.24
2022-12-09T16:46:12.415Z,3.21
2022-12-09T16:48:38.892Z,3.25
2022-12-09T16:51:13.334Z,3.38
2022-12-09T16:53:45.745Z,3.36
2022-12-09T16:56:21.164Z,3.22
2022-12-09T16:58:47.781Z,3.29
2022-12-09T17:01:15.782Z,3.04
2022-12-09T17:03:49.583Z,3.23
2022-12-09T17:06:17.934Z,3.03
2022-12-09T17:08:45.111Z,3.19
2022-12-09T17:11:12.336Z,3.21
2022-12-09T17:13:39.251Z,3.32
2022-12-09T17:16:06.694Z,3.21
2022-12-09T17:18:33.447Z,3.02
2022-12-09T17:21:05.618Z,3.23
2022-12-09T17:23:39.095Z,3.20
2022-12-09T17:26:08.231Z,3.22
2022-12-09T17:28:35.826Z,3.40
2022-12-09T17:31:07.624Z,3.41
2022-12-09T17:33:34.276Z,3.51
2022-12-09T17:36:00.868Z,3.07
2022-12-09T17:38:29.420Z,3.12
2022-12-09T17:40:56.438Z,3.52
2022-12-09T17:43:23.047Z,3.22
2022-12-09T17:45:49.788Z,3.24
2022-12-09T17:48:16.284Z,3.43
2022-12-09T17:50:42.739Z,3.74
2022-12-09T17:53:09.274Z,3.83
2022-12-09T17:55:38.087Z,3.69
2022-12-09T17:58:04.739Z,3.75
2022-12-09T18:00:32.118Z,3.88
2022-12-09T18:02:58.567Z,3.95
2022-12-09T18:05:25.106Z,4.07
2022-12-09T18:07:51.717Z,4.00
2022-12-09T18:10:18.334Z,3.98
2022-12-09T18:12:44.784Z,4.07
2022-12-09T18:15:11.465Z,3.96
2022-12-09T18:17:37.916Z,3.83
2022-12-09T18:20:05.341Z,3.85
2022-12-09T18:22:32.129Z,3.76
2022-12-09T18:24:58.571Z,3.87
2022-12-09T18:27:25.022Z,3.81
2022-12-09T18:29:51.522Z,3.68
2022-12-09T18:32:21.369Z,3.56
2022-12-09T18:34:49.246Z,3.64
2022-12-09T18:37:15.732Z,3.57
2022-12-09T18:39:42.257Z,3.49
2022-12-09T18:42:09.171Z,3.30
2022-12-09T18:44:35.726Z,3.17
2022-12-09T18:47:02.224Z,3.42
2022-12-09T18:49:28.707Z,3.39
2022-12-09T18:51:55.807Z,3.63
2022-12-09T18:54:27.718Z,3.44
2022-12-09T18:56:55.828Z,3.74
2022-12-09T18:59:25.054Z,3.61
2022-12-09T19:01:51.927Z,3.63
2022-12-09T19:04:21.290Z,3.57
2022-12-09T19:06:50.264Z,3.68
2022-12-09T19:09:22.820Z,4.03
2022-12-09T19:11:50.493Z,4.01
2022-12-09T19:14:19.125Z,3.98
2022-12-09T19:16:45.968Z,3.91
2022-12-09T19:19:14.843Z,3.92
2022-12-09T19:21:42.517Z,3.71
2022-12-09T19:24:14.601Z,3.69
2022-12-09T19:26:43.009Z,3.80
2022-12-09T19:29:10.531Z,3.91
2022-12-09T19:31:39.922Z,3.75
2022-12-09T19:34:09.909Z,3.81
2022-12-09T19:36:36.782Z,4.00
2022-12-09T19:39:06.299Z,3.59
2022-12-09T19:41:32.836Z,3.34
2022-12-09T19:44:01.329Z,3.75
2022-12-09T19:46:28.739Z,3.93
2022-12-09T19:48:56.042Z,3.87
2022-12-09T19:51:24.113Z,3.79
2022-12-09T19:53:53.443Z,3.85
2022-12-09T19:56:20.683Z,3.34
2022-12-09T19:58:47.721Z,3.37
2022-12-09T20:01:17.711Z,3.59
2022-12-09T20:03:48.166Z,3.85
2022-12-09T20:06:16.964Z,3.94
2022-12-09T20:08:44.494Z,3.88
2022-12-09T20:11:20.047Z,3.85
2022-12-09T20:13:47.056Z,3.77
2022-12-09T20:16:16.798Z,4.06
2022-12-09T20:18:45.484Z,3.96
2022-12-09T20:21:13.553Z,3.64
2022-12-09T20:23:41.463Z,3.72
2022-12-09T20:26:11.115Z,3.74
2022-12-09T20:28:39.022Z,3.59
2022-12-09T20:31:11.321Z,3.38
2022-12-09T20:33:38.525Z,3.51
2022-12-09T20:36:17.283Z,3.46
2022-12-09T20:38:48.756Z,3.56
2022-12-09T20:41:15.384Z,3.48
2022-12-09T20:43:43.879Z,3.46
2022-12-09T20:46:13.553Z,3.45
2022-12-09T20:48:41.007Z,3.43
2022-12-09T20:51:13.884Z,3.30
2022-12-09T20:53:42.360Z,3.42
2022-12-09T20:56:13.288Z,3.44
2022-12-09T20:58:41.919Z,3.20
2022-12-09T21:01:10.834Z,3.07
2022-12-09T21:03:37.937Z,3.09
2022-12-09T21:06:05.512Z,3.08
2022-12-09T21:08:32.307Z,2.92
2022-12-09T21:11:10.140Z,2.83
2022-12-09T21:13:38.965Z,2.91
2022-12-09T21:16:11.116Z,2.73
2022-12-09T21:18:37.962Z,2.76
2022-12-09T21:21:06.145Z,2.68
2022-12-09T21:23:35.209Z,2.76
2022-12-09T21:26:06.672Z,2.89
2022-12-09T21:28:34.233Z,3.06
2022-12-09T21:31:10.149Z,3.15
2022-12-09T21:33:37.607Z,3.09
2022-12-09T21:36:09.553Z,3.07
2022-12-09T21:38:37.094Z,2.77
2022-12-09T21:41:09.365Z,2.99
2022-12-09T21:43:36.872Z,3.26
2022-12-09T21:46:04.994Z,2.98
2022-12-09T21:48:32.171Z,3.02
2022-12-09T21:51:00.692Z,2.88
2022-12-09T21:53:27.665Z,2.87
2022-12-09T21:55:54.223Z,2.92
2022-12-09T21:58:20.877Z,3.20
2022-12-09T22:00:47.423Z,3.24
2022-12-09T22:03:13.911Z,3.40
2022-12-09T22:05:40.355Z,3.44
2022-12-09T22:08:06.831Z,3.42
2022-12-09T22:10:36.672Z,3.41
2022-12-09T22:13:03.212Z,3.19
2022-12-09T22:15:30.183Z,3.14
2022-12-09T22:17:57.247Z,2.96
2022-12-09T22:21:00.872Z,2.66
2022-12-09T22:23:11.999Z,2.59
2022-12-09T22:25:39.337Z,2.59
2022-12-09T22:28:05.900Z,2.59
2022-12-09T22:30:35.656Z,2.89
2022-12-09T22:33:02.396Z,2.69
2022-12-09T22:35:28.909Z,2.86
2022-12-09T22:37:58.067Z,2.86
2022-12-09T22:40:25.698Z,2.76
2022-12-09T22:42:52.231Z,2.57
2022-12-09T22:45:18.702Z,2.78
2022-12-09T22:47:45.440Z,3.04
2022-12-09T22:50:11.924Z,2.92
2022-12-09T22:52:38.513Z,2.79
2022-12-09T22:55:06.567Z,2.58
2022-12-09T22:57:33.131Z,2.86
2022-12-09T22:59:59.568Z,2.78
2022-12-09T23:02:26.179Z,2.67
2022-12-09T23:04:52.664Z,2.43
2022-12-09T23:07:19.131Z,2.63
2022-12-09T23:09:46.276Z,2.53
2022-12-09T23:12:12.769Z,2.67
2022-12-09T23:14:39.407Z,2.87
2022-12-09T23:17:05.851Z,2.43
2022-12-09T23:19:32.423Z,2.43
2022-12-09T23:21:58.870Z,2.55
2022-12-09T23:24:25.359Z,2.45
2022-12-09T23:26:54.413Z,2.72
2022-12-09T23:29:21.345Z,2.97
2022-12-09T23:31:48.114Z,2.21
2022-12-09T23:34:15.355Z,2.66
2022-12-09T23:36:43.945Z,2.99
2022-12-09T23:39:13.644Z,2.73
2022-12-09T23:41:40.857Z,2.87
2022-12-09T23:44:09.770Z,3.16
2022-12-09T23:46:36.450Z,3.33
2022-12-09T23:49:03.533Z,3.21
2022-12-09T23:51:32.459Z,3.29
2022-12-09T23:54:03.958Z,2.98
2022-12-09T23:56:32.169Z,3.18
2022-12-09T23:59:00.767Z,2.77
